Time;durP1;ratioP1;P1;durP2;ratioP2;P2;SDS_P1;SDS_P2;PMS_P1;PMS_P2;Temp;Humidity;BMP_temperature;BMP_pressure;BME280_temperature;BME280_humidity;BME280_pressure;Samples;Min_cycle;Max_cycle;Signal;HPM_P1;HPM_P2
2021/06/12 00:00:53;;;;;;;25.65;21.30;;;;;;;;;;2071479;28;20219;-60
2021/06/12 00:01:53;;;;;;;27.67;22.45;;;;;;;;;;2064414;28;20622;-62
2021/06/12 00:02:53;;;;;;;28.90;22.52;;;;;;;;;;2059771;28;20191;-61
2021/06/12 00:03:54;;;;;;;28.08;22.63;;;;;;;;;;2064653;28;20166;-62
2021/06/12 00:04:54;;;;;;;27.20;22.33;;;;;;;;;;2071620;28;20195;-60
2021/06/12 00:05:54;;;;;;;28.48;23.15;;;;;;;;;;2065774;28;20225;-61
2021/06/12 00:06:57;;;;;;;27.17;21.92;;;;;;;;;;2064233;28;20661;-62
2021/06/12 00:07:58;;;;;;;31.67;21.90;;;;;;;;;;2063013;28;20248;-59
2021/06/12 00:08:58;;;;;;;23.17;20.63;;;;;;;;;;2066044;28;20193;-63
2021/06/12 00:09:59;;;;;;;27.70;22.27;;;;;;;;;;2061579;28;20674;-62
2021/06/12 00:11:02;;;;;;;26.33;21.88;;;;;;;;;;2060774;28;20182;-63
2021/06/12 00:12:02;;;;;;;25.17;20.80;;;;;;;;;;2056813;28;20669;-62
2021/06/12 00:13:03;;;;;;;26.80;21.50;;;;;;;;;;2059765;28;20262;-61
2021/06/12 00:14:04;;;;;;;26.33;22.48;;;;;;;;;;2060110;28;20190;-60
2021/06/12 00:15:08;;;;;;;24.90;20.30;;;;;;;;;;2054140;28;20178;-59
2021/06/12 00:16:08;;;;;;;25.65;20.00;;;;;;;;;;2058237;28;20184;-59
2021/06/12 00:17:08;;;;;;;24.33;20.42;;;;;;;;;;2056162;28;20561;-63
2021/06/12 00:18:09;;;;;;;25.05;21.90;;;;;;;;;;2069163;28;20184;-63
2021/06/12 00:19:09;;;;;;;23.65;21.17;;;;;;;;;;2057040;28;20740;-63
2021/06/12 00:20:12;;;;;;;24.35;20.13;;;;;;;;;;2053692;28;20203;-58
2021/06/12 00:21:12;;;;;;;23.42;19.80;;;;;;;;;;2056034;28;20170;-61
2021/06/12 00:22:13;;;;;;;24.42;18.90;;;;;;;;;;2058496;28;20201;-62
2021/06/12 00:23:13;;;;;;;23.63;19.15;;;;;;;;;;2053365;28;20175;-62
2021/06/12 00:24:13;;;;;;;26.02;20.45;;;;;;;;;;2060944;28;20259;-59
2021/06/12 00:25:15;;;;;;;24.40;18.88;;;;;;;;;;2052789;28;20246;-60
2021/06/12 00:26:15;;;;;;;24.38;18.08;;;;;;;;;;2060246;28;20165;-64
2021/06/12 00:27:16;;;;;;;21.70;18.48;;;;;;;;;;2058246;28;20257;-60
2021/06/12 00:28:16;;;;;;;22.10;18.70;;;;;;;;;;2059515;28;20186;-56
2021/06/12 00:29:17;;;;;;;21.27;18.02;;;;;;;;;;2057613;28;20661;-59
2021/06/12 00:30:17;;;;;;;21.77;17.88;;;;;;;;;;2059796;28;20252;-60
2021/06/12 00:31:18;;;;;;;23.70;18.45;;;;;;;;;;2056497;28;20175;-62
2021/06/12 00:32:18;;;;;;;23.83;18.40;;;;;;;;;;2055328;28;20213;-58
2021/06/12 00:33:18;;;;;;;23.25;19.35;;;;;;;;;;2064142;28;20241;-61
2021/06/12 00:34:18;;;;;;;25.55;17.92;;;;;;;;;;2059420;28;20769;-61
2021/06/12 00:35:19;;;;;;;25.27;18.02;;;;;;;;;;2051396;28;20205;-58
2021/06/12 00:36:20;;;;;;;21.90;17.90;;;;;;;;;;2051613;28;20183;-56
2021/06/12 00:37:20;;;;;;;22.80;17.92;;;;;;;;;;2053236;28;20178;-61
2021/06/12 00:38:20;;;;;;;23.60;18.45;;;;;;;;;;2052379;28;20198;-61
2021/06/12 00:39:21;;;;;;;21.15;16.90;;;;;;;;;;2059276;28;20201;-59
2021/06/12 00:40:21;;;;;;;24.35;18.63;;;;;;;;;;2060047;28;20197;-56
2021/06/12 00:41:22;;;;;;;25.35;18.70;;;;;;;;;;2056129;28;20276;-55
2021/06/12 00:42:22;;;;;;;25.00;18.15;;;;;;;;;;2051410;28;20183;-59
2021/06/12 00:43:22;;;;;;;22.35;17.63;;;;;;;;;;2059167;28;20665;-57
2021/06/12 00:44:22;;;;;;;23.60;18.27;;;;;;;;;;2061915;28;20790;-62
2021/06/12 00:45:24;;;;;;;23.95;18.27;;;;;;;;;;2059983;28;20542;-62
2021/06/12 00:46:24;;;;;;;24.63;18.55;;;;;;;;;;2056581;28;20182;-61
2021/06/12 00:47:24;;;;;;;22.35;18.77;;;;;;;;;;2065493;28;20169;-60
2021/06/12 00:48:27;;;;;;;23.23;18.50;;;;;;;;;;2069357;28;20205;-56
2021/06/12 00:49:27;;;;;;;22.88;18.25;;;;;;;;;;2061100;28;20264;-60
2021/06/12 00:50:30;;;;;;;24.63;19.15;;;;;;;;;;2059582;28;20552;-62
2021/06/12 00:51:31;;;;;;;21.98;18.35;;;;;;;;;;2058839;28;20198;-57
2021/06/12 00:52:31;;;;;;;24.60;18.35;;;;;;;;;;2056340;28;20175;-62
2021/06/12 00:53:40;;;;;;;27.67;19.77;;;;;;;;;;2056379;28;20185;-61
2021/06/12 00:54:40;;;;;;;27.02;19.40;;;;;;;;;;2051754;28;20562;-60
2021/06/12 00:55:40;;;;;;;24.20;19.42;;;;;;;;;;2064230;28;20173;-60
2021/06/12 00:56:40;;;;;;;26.20;20.35;;;;;;;;;;2061394;28;20178;-59
2021/06/12 00:57:41;;;;;;;27.23;18.88;;;;;;;;;;2057955;28;20162;-62
2021/06/12 00:58:43;;;;;;;26.52;18.95;;;;;;;;;;2057612;28;20332;-61
2021/06/12 00:59:43;;;;;;;25.27;19.35;;;;;;;;;;2056932;28;20202;-57
2021/06/12 01:00:43;;;;;;;26.30;18.92;;;;;;;;;;2057071;28;20173;-61
2021/06/12 01:01:43;;;;;;;25.38;18.92;;;;;;;;;;2056137;28;20665;-60
2021/06/12 01:02:44;;;;;;;22.25;17.63;;;;;;;;;;2057151;28;20190;-59
2021/06/12 01:03:45;;;;;;;26.98;19.70;;;;;;;;;;2057101;28;20180;-56
2021/06/12 01:04:45;;;;;;;24.08;19.08;;;;;;;;;;2056910;28;20184;-58
2021/06/12 01:05:46;;;;;;;23.38;18.98;;;;;;;;;;2056915;28;20222;-62
2021/06/12 01:06:50;;;;;;;26.10;18.95;;;;;;;;;;2055955;28;20174;-60
2021/06/12 01:07:50;;;;;;;24.83;19.40;;;;;;;;;;2057745;28;20193;-62
2021/06/12 01:08:50;;;;;;;25.75;19.30;;;;;;;;;;2056957;28;20725;-62
2021/06/12 01:09:52;;;;;;;24.27;17.95;;;;;;;;;;2057053;28;20816;-60
2021/06/12 01:10:52;;;;;;;24.75;19.15;;;;;;;;;;2056648;28;20221;-58
2021/06/12 01:12:06;;;;;;;26.98;19.13;;;;;;;;;;2052689;28;20234;-61
2021/06/12 01:13:17;;;;;;;25.20;19.20;;;;;;;;;;2057295;28;20188;-62
2021/06/12 01:14:19;;;;;;;25.70;19.27;;;;;;;;;;2057521;28;20289;-58
2021/06/12 01:15:21;;;;;;;25.55;18.90;;;;;;;;;;2057625;28;20289;-59
2021/06/12 01:16:33;;;;;;;27.58;19.17;;;;;;;;;;2055849;28;20206;-58
2021/06/12 01:17:57;;;;;;;25.25;19.33;;;;;;;;;;2051624;28;20194;-60
2021/06/12 01:18:59;;;;;;;21.65;18.95;;;;;;;;;;2043322;29;20606;-57
2021/06/12 01:20:09;;;;;;;26.30;19.88;;;;;;;;;;2048123;28;20237;-61
2021/06/12 01:21:09;;;;;;;26.10;19.58;;;;;;;;;;2048509;29;20189;-59
2021/06/12 01:22:16;;;;;;;24.23;19.60;;;;;;;;;;2049085;28;20171;-61
2021/06/12 01:23:35;;;;;;;28.00;19.40;;;;;;;;;;2048889;28;20171;-59
2021/06/12 01:24:42;;;;;;;28.83;19.48;;;;;;;;;;2051070;28;20147;-59
2021/06/12 01:25:54;;;;;;;30.08;20.48;;;;;;;;;;2054149;28;20278;-60
2021/06/12 01:27:02;;;;;;;25.60;19.88;;;;;;;;;;2057062;28;20169;-59
2021/06/12 01:28:11;;;;;;;28.70;21.67;;;;;;;;;;2060850;28;20178;-60
2021/06/12 01:29:19;;;;;;;27.83;20.23;;;;;;;;;;2068897;28;20742;-63
2021/06/12 01:30:22;;;;;;;26.77;20.77;;;;;;;;;;2057981;28;20604;-59
2021/06/12 01:31:23;;;;;;;24.73;20.20;;;;;;;;;;2058002;28;20228;-54
2021/06/12 01:32:25;;;;;;;28.58;20.83;;;;;;;;;;2058685;28;20192;-58
2021/06/12 01:33:25;;;;;;;27.27;20.83;;;;;;;;;;2058944;28;20174;-58
2021/06/12 01:34:26;;;;;;;24.90;20.30;;;;;;;;;;2061655;28;20505;-55
2021/06/12 01:35:27;;;;;;;27.27;20.17;;;;;;;;;;2064974;28;20646;-59
2021/06/12 01:36:27;;;;;;;26.85;21.30;;;;;;;;;;2067809;28;20188;-59
2021/06/12 01:37:28;;;;;;;25.48;21.13;;;;;;;;;;2062302;28;20180;-59
2021/06/12 01:38:30;;;;;;;28.80;21.70;;;;;;;;;;2064128;28;20603;-58
2021/06/12 01:39:31;;;;;;;30.50;21.58;;;;;;;;;;2069478;28;20184;-62
2021/06/12 01:40:32;;;;;;;27.48;20.85;;;;;;;;;;2059100;28;20523;-57
2021/06/12 01:41:34;;;;;;;31.85;22.75;;;;;;;;;;2060036;28;20291;-60
2021/06/12 01:42:35;;;;;;;28.05;21.63;;;;;;;;;;2054127;28;20577;-60
2021/06/12 01:43:36;;;;;;;29.83;21.80;;;;;;;;;;2063213;28;20178;-59
2021/06/12 01:44:37;;;;;;;28.42;21.85;;;;;;;;;;2055390;28;20202;-57
2021/06/12 01:45:40;;;;;;;28.90;21.10;;;;;;;;;;2061467;28;20567;-57
2021/06/12 01:46:40;;;;;;;29.50;21.67;;;;;;;;;;2063788;28;20173;-58
2021/06/12 01:47:41;;;;;;;26.55;21.40;;;;;;;;;;2049321;28;20258;-58
2021/06/12 01:48:43;;;;;;;33.20;21.55;;;;;;;;;;2056138;28;20674;-59
2021/06/12 01:49:44;;;;;;;30.23;22.58;;;;;;;;;;2056535;28;20190;-58
2021/06/12 01:50:45;;;;;;;29.80;22.83;;;;;;;;;;2054677;28;20186;-61
2021/06/12 01:51:45;;;;;;;30.73;23.35;;;;;;;;;;2059064;28;20182;-57
2021/06/12 01:52:46;;;;;;;30.70;22.60;;;;;;;;;;2064729;28;20228;-55
2021/06/12 01:53:50;;;;;;;26.83;21.73;;;;;;;;;;2057726;28;20193;-56
2021/06/12 01:54:51;;;;;;;28.63;21.38;;;;;;;;;;2062627;28;20176;-58
2021/06/12 01:55:51;;;;;;;28.77;21.52;;;;;;;;;;2057140;28;20185;-59
2021/06/12 01:56:52;;;;;;;28.90;22.08;;;;;;;;;;2050390;28;20175;-58
2021/06/12 01:57:52;;;;;;;30.98;21.10;;;;;;;;;;2042048;29;20663;-59
2021/06/12 01:58:53;;;;;;;29.77;21.17;;;;;;;;;;2041660;29;20177;-59
2021/06/12 01:59:54;;;;;;;27.88;20.83;;;;;;;;;;2044477;29;20221;-60
2021/06/12 02:00:55;;;;;;;28.48;21.35;;;;;;;;;;2049683;28;20167;-57
2021/06/12 02:01:58;;;;;;;28.25;21.58;;;;;;;;;;2054759;28;20651;-59
2021/06/12 02:02:59;;;;;;;27.17;21.73;;;;;;;;;;2050310;28;20214;-58
2021/06/12 02:04:01;;;;;;;29.35;22.15;;;;;;;;;;2050508;28;20713;-59
2021/06/12 02:05:03;;;;;;;30.35;22.27;;;;;;;;;;2049661;29;20631;-60
2021/06/12 02:06:04;;;;;;;29.83;22.40;;;;;;;;;;2049698;29;20167;-56
2021/06/12 02:07:05;;;;;;;30.33;23.02;;;;;;;;;;2050150;28;20266;-57
2021/06/12 02:08:06;;;;;;;28.33;23.05;;;;;;;;;;2049663;28;20174;-59
2021/06/12 02:09:08;;;;;;;31.20;23.35;;;;;;;;;;2049719;29;20171;-59
2021/06/12 02:10:09;;;;;;;31.80;22.70;;;;;;;;;;2050258;28;20285;-60
2021/06/12 02:11:11;;;;;;;36.60;24.35;;;;;;;;;;2049751;28;20250;-55
2021/06/12 02:12:12;;;;;;;33.33;23.02;;;;;;;;;;2052026;28;20741;-59
2021/06/12 02:13:12;;;;;;;30.65;23.67;;;;;;;;;;2049728;29;20207;-58
2021/06/12 02:14:14;;;;;;;34.75;24.60;;;;;;;;;;2053563;28;20218;-59
2021/06/12 02:15:14;;;;;;;33.17;24.55;;;;;;;;;;2056894;28;20182;-59
2021/06/12 02:16:15;;;;;;;32.33;25.90;;;;;;;;;;2056253;28;20174;-61
2021/06/12 02:17:16;;;;;;;39.00;24.55;;;;;;;;;;2058209;28;20237;-61
2021/06/12 02:18:18;;;;;;;34.03;25.20;;;;;;;;;;2061181;28;20217;-55
2021/06/12 02:19:19;;;;;;;34.55;24.77;;;;;;;;;;2056638;28;20194;-64
2021/06/12 02:20:20;;;;;;;33.33;23.63;;;;;;;;;;2064483;28;20198;-56
2021/06/12 02:21:21;;;;;;;36.80;25.50;;;;;;;;;;2062112;28;20181;-58
2021/06/12 02:22:22;;;;;;;35.30;24.80;;;;;;;;;;2055163;28;20533;-60
2021/06/12 02:23:23;;;;;;;35.85;24.95;;;;;;;;;;2053291;28;20199;-60
2021/06/12 02:24:24;;;;;;;36.00;25.15;;;;;;;;;;2048839;28;20182;-61
2021/06/12 02:25:24;;;;;;;33.70;24.83;;;;;;;;;;2051967;28;20179;-62
2021/06/12 02:26:27;;;;;;;35.80;25.88;;;;;;;;;;2061753;28;20174;-58
2021/06/12 02:27:27;;;;;;;32.58;25.17;;;;;;;;;;2060310;28;20241;-63
2021/06/12 02:28:34;;;;;;;40.13;26.40;;;;;;;;;;2057901;28;20674;-59
2021/06/12 02:29:34;;;;;;;36.45;25.52;;;;;;;;;;2057003;28;20195;-60
2021/06/12 02:30:38;;;;;;;41.15;27.13;;;;;;;;;;2056778;28;20178;-61
2021/06/12 02:31:50;;;;;;;36.35;25.70;;;;;;;;;;2054012;28;20625;-59
2021/06/12 02:32:51;;;;;;;37.03;26.13;;;;;;;;;;2058661;28;20174;-58
2021/06/12 02:33:51;;;;;;;37.53;24.98;;;;;;;;;;2060133;28;20178;-62
2021/06/12 02:34:52;;;;;;;39.25;26.92;;;;;;;;;;2062174;28;20268;-60
2021/06/12 02:35:53;;;;;;;38.38;25.88;;;;;;;;;;2057430;28;20213;-58
2021/06/12 02:36:54;;;;;;;36.35;26.92;;;;;;;;;;2064006;28;20682;-61
2021/06/12 02:37:54;;;;;;;37.92;26.73;;;;;;;;;;2063947;28;20269;-61
2021/06/12 02:38:54;;;;;;;37.33;26.17;;;;;;;;;;2059185;28;20170;-58
2021/06/12 02:39:55;;;;;;;36.10;25.02;;;;;;;;;;2065175;28;20209;-56
2021/06/12 02:40:56;;;;;;;41.83;28.92;;;;;;;;;;2064031;28;20165;-58
2021/06/12 02:41:56;;;;;;;38.55;26.83;;;;;;;;;;2060262;28;20158;-59
2021/06/12 02:42:56;;;;;;;35.63;25.90;;;;;;;;;;2060019;28;20671;-60
2021/06/12 02:43:57;;;;;;;36.05;26.80;;;;;;;;;;2057912;28;20178;-57
2021/06/12 02:44:57;;;;;;;36.55;26.45;;;;;;;;;;2055514;28;20604;-59
2021/06/12 02:45:57;;;;;;;38.45;27.75;;;;;;;;;;2058536;28;20176;-58
2021/06/12 02:47:00;;;;;;;38.30;27.55;;;;;;;;;;2065757;28;20169;-61
2021/06/12 02:48:03;;;;;;;36.28;27.23;;;;;;;;;;2065283;28;20184;-62
2021/06/12 02:49:04;;;;;;;38.65;26.52;;;;;;;;;;2062838;28;20169;-59
2021/06/12 02:50:06;;;;;;;35.03;25.23;;;;;;;;;;2051705;28;20203;-57
2021/06/12 02:51:06;;;;;;;39.67;27.75;;;;;;;;;;2048624;28;20333;-60
2021/06/12 02:52:12;;;;;;;35.13;26.73;;;;;;;;;;2052407;28;20174;-60
2021/06/12 02:53:13;;;;;;;40.78;27.52;;;;;;;;;;2058135;28;20273;-62
2021/06/12 02:54:13;;;;;;;37.65;27.15;;;;;;;;;;2060998;28;20185;-62
2021/06/12 02:55:14;;;;;;;42.55;29.27;;;;;;;;;;2061178;28;20182;-60
2021/06/12 02:56:16;;;;;;;38.47;27.73;;;;;;;;;;2060660;28;20661;-62
2021/06/12 02:57:16;;;;;;;39.90;27.98;;;;;;;;;;2048419;28;20266;-62
2021/06/12 02:58:21;;;;;;;34.05;25.73;;;;;;;;;;2064425;28;20173;-61
2021/06/12 02:59:22;;;;;;;37.83;28.25;;;;;;;;;;2065032;28;20630;-60
2021/06/12 03:00:23;;;;;;;41.65;28.63;;;;;;;;;;2060070;28;20586;-60
2021/06/12 03:01:24;;;;;;;37.85;26.25;;;;;;;;;;2058780;28;20672;-60
2021/06/12 03:02:25;;;;;;;42.22;28.98;;;;;;;;;;2054011;28;20174;-58
2021/06/12 03:03:26;;;;;;;43.83;28.98;;;;;;;;;;2057753;28;20166;-61
2021/06/12 03:04:27;;;;;;;39.20;28.45;;;;;;;;;;2062449;28;20177;-61
2021/06/12 03:05:28;;;;;;;38.33;27.38;;;;;;;;;;2064929;28;20222;-60
2021/06/12 03:06:29;;;;;;;39.53;28.50;;;;;;;;;;2057999;28;20662;-60
2021/06/12 03:07:30;;;;;;;39.88;27.52;;;;;;;;;;2061319;28;20271;-60
2021/06/12 03:08:34;;;;;;;39.58;27.92;;;;;;;;;;2065369;28;20174;-57
2021/06/12 03:09:35;;;;;;;41.22;27.75;;;;;;;;;;2065479;28;20162;-58
2021/06/12 03:10:35;;;;;;;39.75;27.73;;;;;;;;;;2065718;28;20510;-58
2021/06/12 03:11:35;;;;;;;39.83;28.05;;;;;;;;;;2060804;28;20201;-59
2021/06/12 03:12:36;;;;;;;39.35;27.42;;;;;;;;;;2051244;28;20179;-59
2021/06/12 03:13:38;;;;;;;39.53;28.15;;;;;;;;;;2062784;28;20177;-60
2021/06/12 03:14:40;;;;;;;42.65;28.52;;;;;;;;;;2058475;28;20709;-58
2021/06/12 03:15:42;;;;;;;41.75;27.60;;;;;;;;;;2051764;28;20187;-61
2021/06/12 03:16:43;;;;;;;38.75;27.73;;;;;;;;;;2049333;28;20167;-60
2021/06/12 03:17:45;;;;;;;39.55;27.75;;;;;;;;;;2049191;28;20282;-57
2021/06/12 03:18:47;;;;;;;36.97;27.10;;;;;;;;;;2049644;28;20211;-60
2021/06/12 03:19:48;;;;;;;40.30;28.35;;;;;;;;;;2048910;29;20298;-59
2021/06/12 03:20:48;;;;;;;39.90;28.23;;;;;;;;;;2052086;28;20253;-61
2021/06/12 03:21:49;;;;;;;38.13;27.63;;;;;;;;;;2057275;28;20221;-62
2021/06/12 03:22:51;;;;;;;42.97;28.48;;;;;;;;;;2049879;28;20171;-59
2021/06/12 03:23:53;;;;;;;38.80;26.50;;;;;;;;;;2049128;28;20201;-53
2021/06/12 03:24:53;;;;;;;38.25;29.23;;;;;;;;;;2048944;28;20251;-60
2021/06/12 03:25:55;;;;;;;44.05;28.40;;;;;;;;;;2049764;28;20167;-58
2021/06/12 03:26:59;;;;;;;38.05;26.92;;;;;;;;;;2054037;28;20669;-58
2021/06/12 03:27:59;;;;;;;35.95;26.23;;;;;;;;;;2056945;28;20516;-57
2021/06/12 03:29:01;;;;;;;39.03;28.60;;;;;;;;;;2056945;28;20173;-62
2021/06/12 03:30:03;;;;;;;38.80;28.15;;;;;;;;;;2057585;28;20201;-62
2021/06/12 03:31:04;;;;;;;35.40;26.98;;;;;;;;;;2056589;28;20232;-57
2021/06/12 03:32:04;;;;;;;39.80;26.95;;;;;;;;;;2051562;28;20274;-63
2021/06/12 03:33:07;;;;;;;40.83;27.58;;;;;;;;;;2056956;28;20173;-60
2021/06/12 03:34:08;;;;;;;39.65;27.65;;;;;;;;;;2056728;28;20179;-61
2021/06/12 03:35:08;;;;;;;39.05;25.90;;;;;;;;;;2056975;28;20737;-63
2021/06/12 03:36:09;;;;;;;37.13;26.75;;;;;;;;;;2055832;28;20177;-59
2021/06/12 03:37:10;;;;;;;35.55;25.65;;;;;;;;;;2048753;29;20250;-63
2021/06/12 03:38:11;;;;;;;37.83;25.80;;;;;;;;;;2049090;28;20189;-61
2021/06/12 03:39:11;;;;;;;33.42;25.00;;;;;;;;;;2049355;28;20218;-57
2021/06/12 03:40:12;;;;;;;35.08;25.25;;;;;;;;;;2048844;29;20235;-59
2021/06/12 03:41:12;;;;;;;33.67;24.83;;;;;;;;;;2048447;28;20261;-59
2021/06/12 03:42:13;;;;;;;32.58;23.50;;;;;;;;;;2054155;28;20183;-61
2021/06/12 03:43:14;;;;;;;38.60;25.23;;;;;;;;;;2056903;28;20593;-62
2021/06/12 03:44:15;;;;;;;37.35;25.58;;;;;;;;;;2056357;28;20197;-62
2021/06/12 03:45:16;;;;;;;33.97;25.10;;;;;;;;;;2048759;28;20186;-60
2021/06/12 03:46:17;;;;;;;34.17;25.30;;;;;;;;;;2049416;28;20546;-62
2021/06/12 03:47:17;;;;;;;31.70;24.73;;;;;;;;;;2061085;28;20184;-61
2021/06/12 03:48:19;;;;;;;35.90;24.58;;;;;;;;;;2063147;28;20177;-60
2021/06/12 03:49:20;;;;;;;31.73;24.00;;;;;;;;;;2063643;28;20174;-59
2021/06/12 03:50:22;;;;;;;33.80;24.23;;;;;;;;;;2054664;28;20681;-61
2021/06/12 03:51:23;;;;;;;32.38;23.85;;;;;;;;;;2061725;28;20176;-60
2021/06/12 03:52:26;;;;;;;33.33;24.55;;;;;;;;;;2060919;28;20200;-61
2021/06/12 03:53:30;;;;;;;31.02;22.77;;;;;;;;;;2056930;28;20178;-59
2021/06/12 03:54:31;;;;;;;32.95;24.40;;;;;;;;;;2057560;28;20542;-60
2021/06/12 03:55:32;;;;;;;30.25;23.38;;;;;;;;;;2057415;28;20214;-61
2021/06/12 03:56:33;;;;;;;31.13;23.92;;;;;;;;;;2056752;28;20178;-60
2021/06/12 03:57:35;;;;;;;33.72;22.70;;;;;;;;;;2056814;28;20543;-60
2021/06/12 03:58:35;;;;;;;30.13;22.60;;;;;;;;;;2057185;28;20198;-62
2021/06/12 03:59:35;;;;;;;29.13;23.33;;;;;;;;;;2054931;28;20175;-63
2021/06/12 04:00:36;;;;;;;31.88;22.65;;;;;;;;;;2054955;29;20207;-62
2021/06/12 04:01:37;;;;;;;32.55;23.20;;;;;;;;;;2057036;28;20166;-62
2021/06/12 04:02:37;;;;;;;31.23;23.13;;;;;;;;;;2052331;28;20195;-59
2021/06/12 04:03:37;;;;;;;28.70;22.52;;;;;;;;;;2062319;28;20170;-59
2021/06/12 04:04:37;;;;;;;29.30;22.02;;;;;;;;;;2064182;28;20174;-62
2021/06/12 04:05:38;;;;;;;28.65;22.45;;;;;;;;;;2064560;28;20228;-62
2021/06/12 04:06:38;;;;;;;29.60;21.67;;;;;;;;;;2057474;28;20186;-60
2021/06/12 04:07:39;;;;;;;29.50;22.20;;;;;;;;;;2058930;28;20178;-58
2021/06/12 04:08:39;;;;;;;29.55;21.90;;;;;;;;;;2056718;28;20174;-60
2021/06/12 04:09:40;;;;;;;30.52;22.63;;;;;;;;;;2056102;28;20170;-60
2021/06/12 04:10:40;;;;;;;28.20;21.40;;;;;;;;;;2070834;23;20237;-62
2021/06/12 04:11:40;;;;;;;27.40;22.38;;;;;;;;;;2059319;28;20663;-63
2021/06/12 04:12:41;;;;;;;32.05;22.92;;;;;;;;;;2066357;28;20197;-64
2021/06/12 04:13:41;;;;;;;32.63;21.85;;;;;;;;;;2063594;28;20191;-64
2021/06/12 04:14:41;;;;;;;28.10;20.63;;;;;;;;;;2064977;28;20169;-63
2021/06/12 04:15:41;;;;;;;29.27;21.55;;;;;;;;;;2063928;28;20185;-64
2021/06/12 04:16:42;;;;;;;27.80;22.08;;;;;;;;;;2055844;28;20195;-63
2021/06/12 04:17:44;;;;;;;26.73;21.25;;;;;;;;;;2064675;28;20263;-64
2021/06/12 04:18:45;;;;;;;30.13;21.95;;;;;;;;;;2063329;28;20189;-63
2021/06/12 04:19:45;;;;;;;27.58;21.75;;;;;;;;;;2056880;28;20730;-64
2021/06/12 04:20:45;;;;;;;29.23;21.48;;;;;;;;;;2070554;28;20268;-63
2021/06/12 04:21:45;;;;;;;26.00;20.45;;;;;;;;;;2066584;28;20173;-63
2021/06/12 04:22:46;;;;;;;29.33;21.25;;;;;;;;;;2071057;28;20187;-64
2021/06/12 04:23:46;;;;;;;27.92;20.45;;;;;;;;;;2065389;28;20181;-63
2021/06/12 04:24:46;;;;;;;26.45;20.38;;;;;;;;;;2072052;28;20187;-64
2021/06/12 04:25:46;;;;;;;26.40;21.23;;;;;;;;;;2066306;28;20182;-64
2021/06/12 04:26:47;;;;;;;29.80;21.17;;;;;;;;;;2072095;28;20201;-65
2021/06/12 04:27:47;;;;;;;27.88;21.42;;;;;;;;;;2064479;28;20658;-63
2021/06/12 04:28:47;;;;;;;27.42;21.00;;;;;;;;;;2072143;28;20177;-64
2021/06/12 04:29:47;;;;;;;25.35;19.85;;;;;;;;;;2066293;28;20188;-64
2021/06/12 04:30:49;;;;;;;28.88;21.08;;;;;;;;;;2071999;28;20306;-63
2021/06/12 04:31:50;;;;;;;24.83;19.23;;;;;;;;;;2065452;28;20165;-63
2021/06/12 04:32:50;;;;;;;29.35;22.42;;;;;;;;;;2072893;28;20204;-64
2021/06/12 04:33:50;;;;;;;30.27;21.98;;;;;;;;;;2065069;28;20178;-64
2021/06/12 04:34:51;;;;;;;29.13;21.25;;;;;;;;;;2072366;28;20189;-63
2021/06/12 04:35:51;;;;;;;27.63;20.85;;;;;;;;;;2065789;28;20176;-64
2021/06/12 04:36:51;;;;;;;30.70;22.15;;;;;;;;;;2067781;28;20653;-64
2021/06/12 04:37:53;;;;;;;28.48;20.35;;;;;;;;;;2064857;28;20186;-64
2021/06/12 04:38:53;;;;;;;26.85;20.67;;;;;;;;;;2063105;28;20161;-64
2021/06/12 04:39:54;;;;;;;25.75;20.67;;;;;;;;;;2057373;28;20206;-64
2021/06/12 04:40:54;;;;;;;24.85;20.23;;;;;;;;;;2072547;28;20188;-63
2021/06/12 04:41:54;;;;;;;26.25;20.75;;;;;;;;;;2065687;28;20600;-64
2021/06/12 04:42:54;;;;;;;28.17;21.52;;;;;;;;;;2069905;28;20255;-64
2021/06/12 04:43:55;;;;;;;24.48;20.27;;;;;;;;;;2071020;28;20807;-64
2021/06/12 04:44:55;;;;;;;29.30;21.33;;;;;;;;;;2068310;28;20715;-64
2021/06/12 04:45:55;;;;;;;28.17;22.27;;;;;;;;;;2068291;28;20924;-64
2021/06/12 04:46:55;;;;;;;27.90;20.38;;;;;;;;;;2064019;28;20233;-64
2021/06/12 04:47:56;;;;;;;23.88;20.15;;;;;;;;;;2059603;28;20182;-64
2021/06/12 04:48:57;;;;;;;24.85;20.15;;;;;;;;;;2071915;28;20223;-63
2021/06/12 04:49:57;;;;;;;31.38;21.40;;;;;;;;;;2071315;28;20169;-64
2021/06/12 04:50:57;;;;;;;27.50;21.20;;;;;;;;;;2071365;28;20208;-64
2021/06/12 04:51:57;;;;;;;27.67;21.00;;;;;;;;;;2066986;28;20182;-64
2021/06/12 04:52:58;;;;;;;27.63;21.00;;;;;;;;;;2069878;28;20181;-64
2021/06/12 04:53:58;;;;;;;25.90;21.30;;;;;;;;;;2070433;28;20661;-63
2021/06/12 04:54:58;;;;;;;27.58;20.48;;;;;;;;;;2070809;28;20300;-63
2021/06/12 04:55:59;;;;;;;24.45;19.52;;;;;;;;;;2061667;28;20181;-63
2021/06/12 04:56:59;;;;;;;29.40;22.13;;;;;;;;;;2065238;28;20202;-64
2021/06/12 04:58:01;;;;;;;28.55;21.58;;;;;;;;;;2065020;28;20204;-63
2021/06/12 04:59:01;;;;;;;30.88;21.38;;;;;;;;;;2065882;28;20173;-64
2021/06/12 05:00:02;;;;;;;27.80;21.70;;;;;;;;;;2067765;28;20204;-63
2021/06/12 05:01:02;;;;;;;27.20;21.92;;;;;;;;;;2064769;28;20177;-64
2021/06/12 05:02:02;;;;;;;27.10;22.05;;;;;;;;;;2063921;28;20721;-63
2021/06/12 05:03:03;;;;;;;29.58;22.15;;;;;;;;;;2066938;28;20199;-64
2021/06/12 05:04:03;;;;;;;29.58;21.42;;;;;;;;;;2063955;28;20272;-64
2021/06/12 05:05:05;;;;;;;27.58;21.55;;;;;;;;;;2069559;28;20235;-64
2021/06/12 05:06:05;;;;;;;27.00;21.85;;;;;;;;;;2066593;28;20195;-64
2021/06/12 05:07:05;;;;;;;28.02;21.10;;;;;;;;;;2064888;28;20176;-64
2021/06/12 05:08:05;;;;;;;26.63;20.52;;;;;;;;;;2069592;28;20708;-64
2021/06/12 05:09:06;;;;;;;29.17;21.92;;;;;;;;;;2066387;28;20275;-64
2021/06/12 05:10:07;;;;;;;26.50;21.00;;;;;;;;;;2068609;28;20162;-63
2021/06/12 05:11:07;;;;;;;25.25;21.05;;;;;;;;;;2063725;28;20607;-64
2021/06/12 05:12:08;;;;;;;29.48;21.65;;;;;;;;;;2064381;28;20184;-68
2021/06/12 05:13:08;;;;;;;26.85;20.83;;;;;;;;;;2067152;28;20180;-64
2021/06/12 05:14:09;;;;;;;27.02;20.92;;;;;;;;;;2067799;28;20696;-64
2021/06/12 05:15:10;;;;;;;22.90;20.30;;;;;;;;;;2061599;28;20170;-65
2021/06/12 05:16:10;;;;;;;27.92;20.90;;;;;;;;;;2064558;28;20232;-64
2021/06/12 05:17:13;;;;;;;24.48;18.73;;;;;;;;;;2067241;28;20176;-64
2021/06/12 05:18:14;;;;;;;26.42;20.65;;;;;;;;;;2067726;28;20185;-63
2021/06/12 05:19:15;;;;;;;27.67;20.92;;;;;;;;;;2064013;28;20216;-64
2021/06/12 05:20:15;;;;;;;31.00;21.88;;;;;;;;;;2066671;28;20759;-64
2021/06/12 05:21:15;;;;;;;25.88;20.48;;;;;;;;;;2067706;28;20238;-63
2021/06/12 05:22:20;;;;;;;28.70;21.83;;;;;;;;;;2069283;28;20199;-64
2021/06/12 05:23:20;;;;;;;28.00;21.38;;;;;;;;;;2060836;28;20249;-64
2021/06/12 05:24:20;;;;;;;25.55;19.58;;;;;;;;;;2064142;28;20661;-64
2021/06/12 05:25:21;;;;;;;25.48;21.00;;;;;;;;;;2070771;28;20164;-65
2021/06/12 05:26:21;;;;;;;25.45;21.52;;;;;;;;;;2074107;28;20711;-63
2021/06/12 05:27:22;;;;;;;25.95;21.35;;;;;;;;;;2073963;28;20165;-63
2021/06/12 05:28:22;;;;;;;25.42;20.30;;;;;;;;;;2075084;28;20659;-64
2021/06/12 05:29:23;;;;;;;29.23;22.17;;;;;;;;;;2073915;28;20315;-64
2021/06/12 05:30:23;;;;;;;30.45;21.70;;;;;;;;;;2065762;28;20318;-63
2021/06/12 05:31:23;;;;;;;26.20;21.88;;;;;;;;;;2065739;28;20170;-64
2021/06/12 05:32:23;;;;;;;28.58;21.20;;;;;;;;;;2066074;28;20561;-64
2021/06/12 05:33:24;;;;;;;24.92;19.55;;;;;;;;;;2057774;28;20180;-64
2021/06/12 05:34:24;;;;;;;27.77;20.88;;;;;;;;;;2057857;28;20189;-65
2021/06/12 05:35:25;;;;;;;24.65;20.05;;;;;;;;;;2066702;28;20176;-64
2021/06/12 05:36:25;;;;;;;26.92;20.63;;;;;;;;;;2066458;28;20193;-64
2021/06/12 05:37:26;;;;;;;27.63;20.55;;;;;;;;;;2066570;28;20276;-64
2021/06/12 05:38:26;;;;;;;27.58;21.00;;;;;;;;;;2066428;28;20165;-64
2021/06/12 05:39:27;;;;;;;23.33;19.85;;;;;;;;;;2066600;28;20170;-65
2021/06/12 05:40:27;;;;;;;26.60;20.35;;;;;;;;;;2065775;28;20783;-64
2021/06/12 05:41:27;;;;;;;25.65;19.17;;;;;;;;;;2073725;28;20171;-64
2021/06/12 05:42:27;;;;;;;27.95;19.52;;;;;;;;;;2075000;28;20173;-64
2021/06/12 05:43:28;;;;;;;24.50;19.55;;;;;;;;;;2074812;28;20166;-63
2021/06/12 05:44:28;;;;;;;24.13;19.15;;;;;;;;;;2074746;28;20699;-66
2021/06/12 05:45:28;;;;;;;26.85;20.15;;;;;;;;;;2074812;28;20267;-64
2021/06/12 05:46:29;;;;;;;24.20;20.45;;;;;;;;;;2074771;28;20626;-65
2021/06/12 05:47:29;;;;;;;27.67;20.60;;;;;;;;;;2074714;28;20165;-65
2021/06/12 05:48:29;;;;;;;26.63;19.55;;;;;;;;;;2074672;28;20651;-64
2021/06/12 05:49:29;;;;;;;24.10;20.65;;;;;;;;;;2066814;28;20166;-64
2021/06/12 05:50:30;;;;;;;24.75;18.70;;;;;;;;;;2072355;28;20193;-64
2021/06/12 05:51:30;;;;;;;23.58;19.60;;;;;;;;;;2071086;28;20178;-65
2021/06/12 05:52:30;;;;;;;25.83;20.00;;;;;;;;;;2066383;28;20194;-63
2021/06/12 05:53:31;;;;;;;24.90;19.38;;;;;;;;;;2060445;28;20221;-64
2021/06/12 05:54:31;;;;;;;26.48;20.35;;;;;;;;;;2072329;28;20169;-63
2021/06/12 05:55:32;;;;;;;24.98;19.75;;;;;;;;;;2067489;28;20178;-64
2021/06/12 05:56:32;;;;;;;25.35;19.95;;;;;;;;;;2072520;28;20185;-65